Thunder radar more information blitzortung!


avis per Pluja more information rain snow radar


Visita la nostra xarxa de llocs de meteo:

Template documentation
and downloads

And another site



Rain From: 18-10-2018 10:00 Until: 16:59 warning for: Rain Level: Yellow info button

Pagina Historial Weather Underground text

Diari Resum Marc 1, 2016 Unitats:  Mètric    Imperial   Tant
« Previous Dia
SegĂźent Dia »
Diari Setmana Mensual Anual Personalitzada
  Maxima: Minima: Media:
Temperatura: -17.8 °C -16.1 °C -11.1 °C
Punt de rosada: -17.8 °C -22 °C -18.4 °C
Humitat: Humidity % 31 % 41 %
Wind Speed: 0 km/h 0 km/h 7.7 km/h
RĂ fegues de vent: 0 km/h - -
Vent:- - SSW
Pression baro: 0 hPa 34496.6 hPa -
Precipitacions: 0 mm    
Historical Graphs
 
 
Dades de taula per Marc 1, 2016
Temps Temperatura Punt de rosada Pression baro Vent Wind Speed RĂ fegues de vent Humitat Rainfall Rate (Hourly)
-17.8 °C -17.8 °C 0 hPa Calm     Humidity % 0 mm
00:05 -15.3 °C -22 °C 34567.7 hPa Calm   5.1 km/h 41 % 0 mm
00:15 -15.3 °C -21.9 °C 34567.7 hPa Calm   2.6 km/h 42 % 0 mm
00:25 -15.4 °C -21.8 °C 34567.7 hPa NE 5.1 km/h 7.7 km/h 43 % 0 mm
00:35 -15.5 °C -21.9 °C 34601.5 hPa Calm   5.1 km/h 43 % 0 mm
00:45 -15.7 °C -21.8 °C 34601.5 hPa WSW 2.6 km/h 5.1 km/h 44 % 0 mm
00:55 -15.7 °C -21.7 °C 34601.5 hPa Calm   5.1 km/h 45 % 0 mm
01:05 -15.8 °C -21.8 °C 34635.4 hPa West 5.1 km/h 7.7 km/h 45 % 0 mm
01:15 -16 °C -21.8 °C 34635.4 hPa WSW 2.6 km/h 5.1 km/h 46 % 0 mm
01:25 -16 °C -21.7 °C 34601.5 hPa Calm   5.1 km/h 47 % 0 mm
01:35 -16 °C -21.6 °C 34601.5 hPa West 2.6 km/h 5.1 km/h 48 % 0 mm
01:45 -15.8 °C -21.2 °C 34601.5 hPa NNW 2.6 km/h 5.1 km/h 49 % 0 mm
01:55 -16.1 °C -21.4 °C 34635.4 hPa NW 2.6 km/h 7.7 km/h 49 % 0 mm
02:15 -15.6 °C -20.8 °C 34601.5 hPa SW 2.6 km/h 5.1 km/h 50 % 0 mm
02:25 -15.1 °C -20.4 °C 34601.5 hPa NE 5.1 km/h 12.9 km/h 50 % 0 mm
02:35 -14.8 °C -20.2 °C 34601.5 hPa NNE 5.1 km/h 5.1 km/h 50 % 0 mm
02:45 -14.6 °C -19.9 °C 34601.5 hPa North 2.6 km/h 7.7 km/h 50 % 0 mm
02:55 -14.4 °C -19.8 °C 34635.4 hPa WSW 2.6 km/h 7.7 km/h 50 % 0 mm
03:05 -14.2 °C -19.6 °C 34635.4 hPa SSW 2.6 km/h 5.1 km/h 50 % 0 mm
03:15 -13.9 °C -19.4 °C 34635.4 hPa NE 5.1 km/h 5.1 km/h 49 % 0 mm
03:25 -13.7 °C -19.4 °C 34635.4 hPa NE 7.7 km/h 10.3 km/h 48 % 0 mm
03:35 -13.4 °C -19.1 °C 34635.4 hPa NNE 2.6 km/h 10.3 km/h 48 % 0 mm
03:45 -13.2 °C -19 °C 34635.4 hPa North 5.1 km/h 7.7 km/h 48 % 0 mm
03:55 -12.9 °C -18.7 °C 34635.4 hPa NE 2.6 km/h 7.7 km/h 48 % 0 mm
04:25 -12.4 °C -18.6 °C 34635.4 hPa East 5.1 km/h 7.7 km/h 46 % 0 mm
10:33 -12.1 °C -18.3 °C 34635.4 hPa NE 6 km/h 6.8 km/h 46 % 0 mm
10:38 -12.1 °C -18.2 °C 34635.4 hPa East 15 km/h 15 km/h 46 % 0 mm
10:43 -11.9 °C -18.1 °C 34635.4 hPa ENE 7.6 km/h 7.6 km/h 46 % 0 mm
10:48 -11.7 °C -17.9 °C 34635.4 hPa NNE 9 km/h 9 km/h 46 % 0 mm
10:53 -11.6 °C -17.8 °C 34635.4 hPa NNE 6 km/h 8.5 km/h 46 % 0 mm
10:58 -11.3 °C -17.6 °C 34635.4 hPa WSW 6.8 km/h 6.8 km/h 46 % 0 mm
11:03 -11.1 °C -17.6 °C 34635.4 hPa ENE 6 km/h 6.8 km/h 45 % 0 mm
11:08 -10.9 °C -17.6 °C 34635.4 hPa SSW 6 km/h 6 km/h 44 % 0 mm
11:13 -10.8 °C -17.3 °C 34635.4 hPa WNW 26.9 km/h 26.9 km/h 45 % 0 mm
11:18 -10.8 °C -17.7 °C 34635.4 hPa NE 9 km/h 9 km/h 43 % 0 mm
11:23 -10.8 °C -17.7 °C 34635.4 hPa WNW 9 km/h 9 km/h 43 % 0 mm
11:28 -10.8 °C -17.7 °C 34635.4 hPa West 9 km/h 9 km/h 43 % 0 mm
11:33 -10.8 °C -17.7 °C 34635.4 hPa NW 6.8 km/h 6.8 km/h 43 % 0 mm
11:38 -10.8 °C -17.7 °C 34635.4 hPa West 15 km/h 15 km/h 43 % 0 mm
11:43 -10.8 °C -17.7 °C 34635.4 hPa SW 9 km/h 9 km/h 43 % 0 mm
11:48 -10.8 °C -17.7 °C 34635.4 hPa WNW 15 km/h 15 km/h 43 % 0 mm
11:53 -10.8 °C -17.7 °C 34635.4 hPa WSW 9.3 km/h 10.3 km/h 43 % 0 mm
11:58 -10.8 °C -17.7 °C 34635.4 hPa NNE 15 km/h 15 km/h 43 % 0 mm
12:03 -10.8 °C -17.7 °C 34635.4 hPa East 20.9 km/h 20.9 km/h 43 % 0 mm
12:08 -10.8 °C -17.7 °C 34635.4 hPa NNE 6.8 km/h 6.8 km/h 43 % 0 mm
12:13 -10.8 °C -17.7 °C 34635.4 hPa West 17.9 km/h 17.9 km/h 43 % 0 mm
12:18 -10.8 °C -17.7 °C 34601.5 hPa WNW 14 km/h 14 km/h 43 % 0 mm
12:23 -9.4 °C -17.9 °C 34601.5 hPa WSW 17.9 km/h 17.9 km/h 35 % 0 mm
12:28 -9.4 °C -17.9 °C 34601.5 hPa WSW 20.9 km/h 20.9 km/h 35 % 0 mm
12:33 -9.4 °C -17.9 °C 34601.5 hPa South 17.9 km/h 17.9 km/h 35 % 0 mm
12:38 -9.4 °C -17.9 °C 34601.5 hPa WSW 9.3 km/h 11.6 km/h 35 % 0 mm
12:43 -9.4 °C -17.9 °C 34601.5 hPa SW 15 km/h 15 km/h 35 % 0 mm
12:48 -9.4 °C -17.9 °C 34601.5 hPa WSW 29.8 km/h 29.8 km/h 35 % 0 mm
12:53 -9.3 °C -18.1 °C 34601.5 hPa WSW 20.9 km/h 20.9 km/h 34 % 0 mm
12:58 -9.3 °C -18.1 °C 34601.5 hPa WSW 15 km/h 15 km/h 34 % 0 mm
13:03 -9.1 °C -17.6 °C 34601.5 hPa SSW 15 km/h 15 km/h 35 % 0 mm
13:13 -9.1 °C -17.8 °C 34601.5 hPa SW 15 km/h 15 km/h 34 % 0 mm
13:18 -9 °C -17.8 °C 34601.5 hPa WSW 17.9 km/h 17.9 km/h 34 % 0 mm
13:23 -8.8 °C -17.7 °C 34601.5 hPa WNW 11.9 km/h 11.9 km/h 34 % 0 mm
13:28 -8.6 °C -17.4 °C 34601.5 hPa West 11.9 km/h 11.9 km/h 34 % 0 mm
13:33 -8.6 °C -17.4 °C 34601.5 hPa West 15 km/h 15.3 km/h 34 % 0 mm
13:38 -8.7 °C -17.5 °C 34601.5 hPa West 15 km/h 15 km/h 34 % 0 mm
13:43 -8.6 °C -17.7 °C 34601.5 hPa WSW 22.5 km/h 22.5 km/h 33 % 0 mm
13:53 -8.4 °C -17.6 °C 34601.5 hPa NW 11.9 km/h 11.9 km/h 33 % 0 mm
13:58 -8.6 °C -17.7 °C 34601.5 hPa WSW 17.9 km/h 17.9 km/h 33 % 0 mm
14:03 -8.6 °C -17.4 °C 34601.5 hPa West 15 km/h 15 km/h 34 % 0 mm
14:08 -8.6 °C -17.7 °C 34601.5 hPa SW 15 km/h 15 km/h 33 % 0 mm
14:13 -8.6 °C -17.4 °C 34601.5 hPa SSW 26.9 km/h 26.9 km/h 34 % 0 mm
14:18 -8.4 °C -17.3 °C 34601.5 hPa West 23.8 km/h 23.8 km/h 34 % 0 mm
14:28 -8.4 °C -17.3 °C 34601.5 hPa SSW 20.9 km/h 20.9 km/h 34 % 0 mm
14:33 -8.3 °C -17.4 °C 34601.5 hPa WSW 23.8 km/h 23.8 km/h 33 % 0 mm
14:38 -8.6 °C -17.9 °C 34601.5 hPa SSW 26.9 km/h 26.9 km/h 32 % 0 mm
14:43 -8.4 °C -17.5 °C 34601.5 hPa West 11.9 km/h 11.9 km/h 33 % 0 mm
14:48 -8.4 °C -17.7 °C 34601.5 hPa SW 20.9 km/h 20.9 km/h 32 % 0 mm
14:53 -8.2 °C -17.6 °C 34601.5 hPa SW 9 km/h 9.3 km/h 32 % 0 mm
14:58 -8.4 °C -17.8 °C 34601.5 hPa SW 15 km/h 15 km/h 32 % 0 mm
15:03 -8.8 °C -18.1 °C 34601.5 hPa SSW 20.9 km/h 20.9 km/h 32 % 0 mm
15:08 -8.8 °C -18.1 °C 34601.5 hPa WSW 26.9 km/h 26.9 km/h 32 % 0 mm
15:13 -8.8 °C -17.9 °C 34601.5 hPa West 9 km/h 9 km/h 33 % 0 mm
15:18 -9 °C -18.3 °C 34601.5 hPa WSW 20.9 km/h 20.9 km/h 32 % 0 mm
15:23 -9.1 °C -18.4 °C 34601.5 hPa WSW 19.2 km/h 19.2 km/h 32 % 0 mm
15:28 -9.3 °C -18.8 °C 34601.5 hPa SW 20.9 km/h 20.9 km/h 31 % 0 mm
15:33 -9.5 °C -18.9 °C 34601.5 hPa WSW 23.8 km/h 23.8 km/h 31 % 0 mm
15:38 -9.7 °C -19.1 °C 34601.5 hPa WSW 17.9 km/h 17.9 km/h 31 % 0 mm
15:43 -9.8 °C -19.2 °C 34601.5 hPa WNW 15 km/h 15 km/h 31 % 0 mm
15:48 -9.8 °C -19.2 °C 34601.5 hPa WSW 9 km/h 9 km/h 31 % 0 mm
15:53 -9.8 °C -19.2 °C 34601.5 hPa ESE 9 km/h 9 km/h 31 % 0 mm
15:58 -9.7 °C -18.9 °C 34601.5 hPa SW 11.9 km/h 11.9 km/h 32 % 0 mm
16:03 -9.7 °C -18.8 °C 34601.5 hPa WNW 6 km/h 6 km/h 32 % 0 mm
16:08 -9.7 °C -18.8 °C 34601.5 hPa WSW 9 km/h 9 km/h 32 % 0 mm
16:18 -9.6 °C -18.8 °C 34601.5 hPa SW 11.9 km/h 11.9 km/h 32 % 0 mm
16:23 -9.6 °C -18.8 °C 34601.5 hPa ENE 11.9 km/h 11.9 km/h 32 % 0 mm
16:28 -9.6 °C -18.8 °C 34601.5 hPa WSW 11.9 km/h 11.9 km/h 32 % 0 mm
16:33 -9.6 °C -18.8 °C 34601.5 hPa West 19.6 km/h 19.6 km/h 32 % 0 mm
16:38 -9.6 °C -18.8 °C 34601.5 hPa West 4.2 km/h 5.1 km/h 32 % 0 mm
16:43 -9.5 °C -18.7 °C 34601.5 hPa WNW 6 km/h 6 km/h 32 % 0 mm
16:48 -9.4 °C -18.7 °C 34567.7 hPa WSW 6.3 km/h 6.3 km/h 32 % 0 mm
16:53 -9.4 °C -18.7 °C 34567.7 hPa NNE 15 km/h 15 km/h 32 % 0 mm
16:58 -9.4 °C -18.6 °C 34567.7 hPa ESE 9 km/h 9 km/h 32 % 0 mm
17:03 -9.4 °C -18.6 °C 34601.5 hPa WNW 10.3 km/h 10.3 km/h 32 % 0 mm
17:08 -9.4 °C -18.7 °C 34601.5 hPa West 6 km/h 6 km/h 32 % 0 mm
17:13 -9.4 °C -18.6 °C 34601.5 hPa South 3.1 km/h 3.1 km/h 32 % 0 mm
17:15 -11.3 °C -17.4 °C 34635.4 hPa WSW 5.1 km/h 12.9 km/h 47 % 0 mm
17:18 -9.4 °C -18.4 °C 34601.5 hPa NW 3.1 km/h 3.1 km/h 33 % 0 mm
17:23 -9.4 °C -18.4 °C 34601.5 hPa ENE 3.1 km/h   33 % 0 mm
17:25 -11.3 °C -17.4 °C 34601.5 hPa West 5.1 km/h 5.1 km/h 47 % 0 mm
17:28 -9.4 °C -18.4 °C 34601.5 hPa NNE 6.8 km/h 6.8 km/h 33 % 0 mm
17:33 -9.3 °C -18.3 °C 34601.5 hPa WSW 6 km/h 6 km/h 33 % 0 mm
17:35 -11.4 °C -17.5 °C 34601.5 hPa WSW 7.7 km/h 7.7 km/h 47 % 0 mm
17:38 -9.3 °C -18.3 °C 34601.5 hPa West 6 km/h 6 km/h 33 % 0 mm
17:43 -9.3 °C -18.3 °C 34601.5 hPa NNE 3.1 km/h 3.1 km/h 33 % 0 mm
17:45 -11.6 °C -17.6 °C 34601.5 hPa Calm   10.3 km/h 47 % 0 mm
17:48 -9.3 °C -18.3 °C 34567.7 hPa SW 6 km/h 6 km/h 33 % 0 mm
17:53 -9.4 °C -18.4 °C 34567.7 hPa NNE 4.2 km/h 4.2 km/h 33 % 0 mm
17:55 -11.7 °C -17.8 °C 34601.5 hPa SW 5.1 km/h 5.1 km/h 47 % 0 mm
17:58 -9.6 °C -18.6 °C 34567.7 hPa NNE 6 km/h 6 km/h 33 % 0 mm
18:05 -11.7 °C -17.8 °C 34601.5 hPa SW 5.1 km/h 7.7 km/h 47 % 0 mm
18:08 -9.8 °C -18.8 °C 34601.5 hPa NW 6 km/h   33 % 0 mm
18:13 -9.9 °C -18.8 °C 34601.5 hPa West 6 km/h 6 km/h 33 % 0 mm
18:15 -11.8 °C -17.9 °C 34601.5 hPa WSW 5.1 km/h 5.1 km/h 47 % 0 mm
18:18 -9.9 °C -18.6 °C 34601.5 hPa West 3.1 km/h   34 % 0 mm
18:23 -9.9 °C -18.6 °C 34601.5 hPa WSW 6.3 km/h 6.3 km/h 34 % 0 mm
18:25 -11.8 °C -17.9 °C 34601.5 hPa WSW 5.1 km/h 5.1 km/h 47 % 0 mm
18:28 -9.9 °C -18.7 °C 34601.5 hPa SW 4.2 km/h 4.2 km/h 34 % 0 mm
18:33 -10 °C -18.7 °C 34601.5 hPa Calm     34 % 0 mm
18:35 -11.9 °C -17.9 °C 34601.5 hPa WSW 2.6 km/h 7.7 km/h 47 % 0 mm
18:38 -10 °C -18.7 °C 34601.5 hPa WSW 6 km/h 6 km/h 34 % 0 mm
18:43 -10.1 °C -18.7 °C 34601.5 hPa WNW 3.7 km/h 3.7 km/h 34 % 0 mm
18:45 -12 °C -18.2 °C 34601.5 hPa West 2.6 km/h 5.1 km/h 46 % 0 mm
18:48 -10.1 °C -18.8 °C 34601.5 hPa WSW 3.7 km/h 3.7 km/h 34 % 0 mm
18:53 -10.1 °C -18.6 °C 34601.5 hPa WSW 9 km/h 9 km/h 35 % 0 mm
18:55 -12.1 °C -18.3 °C 34601.5 hPa NW 2.6 km/h 5.1 km/h 46 % 0 mm
18:58 -10.1 °C -18.6 °C 34601.5 hPa West 3.1 km/h   35 % 0 mm
19:03 -10.2 °C -18.6 °C 34601.5 hPa WSW 6 km/h 6 km/h 35 % 0 mm
19:05 -12 °C -18.2 °C 34601.5 hPa WNW 2.6 km/h 23.3 km/h 46 % 0 mm
19:08 -10.2 °C -18.6 °C 34601.5 hPa WSW 6 km/h 6 km/h 35 % 0 mm
19:13 -10.2 °C -18.6 °C 34601.5 hPa WSW 6 km/h 6 km/h 35 % 0 mm
19:15 -12.2 °C -18.3 °C 34601.5 hPa West 5.1 km/h 5.1 km/h 46 % 0 mm
19:18 -10.2 °C -18.4 °C 34601.5 hPa WSW 3.7 km/h   36 % 0 mm
19:23 -10.2 °C -18.4 °C 34601.5 hPa West 6 km/h 6 km/h 36 % 0 mm
19:25 -12.3 °C -18.3 °C 34601.5 hPa WSW 5.1 km/h 10.3 km/h 47 % 0 mm
19:28 -10.3 °C -18.5 °C 34601.5 hPa WSW 4.2 km/h 4.2 km/h 36 % 0 mm
19:33 -10.2 °C -18.4 °C 34601.5 hPa SW 6 km/h 6 km/h 36 % 0 mm
19:35 -12.4 °C -18.6 °C 34635.4 hPa WSW 2.6 km/h 5.1 km/h 46 % 0 mm
19:38 -10.2 °C -18.2 °C 34601.5 hPa West 6.8 km/h 9.3 km/h 37 % 0 mm
19:43 -10.2 °C -18.2 °C 34601.5 hPa WNW 3.7 km/h 3.7 km/h 37 % 0 mm
19:45 -12.4 °C -18.6 °C 34601.5 hPa West 2.6 km/h 5.1 km/h 46 % 0 mm
19:48 -10.2 °C -18.2 °C 34601.5 hPa West 3.1 km/h 3.1 km/h 37 % 0 mm
19:55 -12.5 °C -18.7 °C 34601.5 hPa Calm   2.6 km/h 46 % 0 mm
19:58 -10.3 °C -18.1 °C 34601.5 hPa WNW 4.2 km/h 4.2 km/h 38 % 0 mm
20:03 -10.3 °C -18.1 °C 34601.5 hPa Calm     38 % 0 mm
20:08 -10.3 °C -18.2 °C 34601.5 hPa WSW 3.1 km/h 3.1 km/h 38 % 0 mm
20:13 -10.4 °C -18.2 °C 34601.5 hPa WSW 6 km/h 6 km/h 38 % 0 mm
20:15 -12.6 °C -18.5 °C 34601.5 hPa Calm   5.1 km/h 47 % 0 mm
20:18 -10.5 °C -18.1 °C 34601.5 hPa WSW 6 km/h 6 km/h 39 % 0 mm
20:23 -10.5 °C -18.1 °C 34601.5 hPa WNW 9 km/h 9 km/h 39 % 0 mm
20:25 -12.7 °C -18.7 °C 34601.5 hPa Calm   5.1 km/h 47 % 0 mm
20:28 -10.4 °C -18 °C 34601.5 hPa SW 3.1 km/h   39 % 0 mm
20:33 -10.6 °C -18.2 °C 34601.5 hPa WSW 6 km/h 6 km/h 39 % 0 mm
20:35 -12.7 °C -18.7 °C 34601.5 hPa NNE 2.6 km/h 2.6 km/h 47 % 0 mm
20:38 -10.6 °C -18.2 °C 34601.5 hPa WSW 6 km/h 6 km/h 39 % 0 mm
20:43 -10.6 °C -18 °C 34601.5 hPa WSW 6 km/h 6 km/h 40 % 0 mm
20:45 -12.8 °C -18.7 °C 34601.5 hPa NE 2.6 km/h 5.1 km/h 48 % 0 mm
20:48 -10.7 °C -18.1 °C 34601.5 hPa WSW 3.1 km/h 3.1 km/h 40 % 0 mm
20:53 -10.8 °C -18.2 °C 34601.5 hPa WSW 6 km/h 6 km/h 40 % 0 mm
20:55 -12.9 °C -18.7 °C 34601.5 hPa Calm   2.6 km/h 48 % 0 mm
20:58 -10.8 °C -18 °C 34601.5 hPa SW 4.2 km/h 4.2 km/h 41 % 0 mm
21:03 -10.9 °C -18.1 °C 34601.5 hPa WSW 9 km/h 9 km/h 41 % 0 mm
21:05 -12.9 °C -18.6 °C 34601.5 hPa North 2.6 km/h 5.1 km/h 49 % 0 mm
21:08 -10.9 °C -18.1 °C 34601.5 hPa Calm     41 % 0 mm
21:13 -10.8 °C -17.8 °C 34601.5 hPa WSW 9 km/h 9 km/h 42 % 0 mm
21:15 -13 °C -18.6 °C 34567.7 hPa Calm   2.6 km/h 49 % 0 mm
21:18 -10.8 °C -17.8 °C 34635.4 hPa SW 6 km/h 6 km/h 42 % 0 mm
21:23 -10.9 °C -17.9 °C 34635.4 hPa SW 6 km/h 6 km/h 42 % 0 mm
21:25 -13.1 °C -18.7 °C 34567.7 hPa North 2.6 km/h 5.1 km/h 49 % 0 mm
21:28 -10.9 °C -17.9 °C 34635.4 hPa SW 4.2 km/h 4.2 km/h 42 % 0 mm
21:33 -11 °C -17.8 °C 34601.5 hPa WSW 6.3 km/h 6.3 km/h 43 % 0 mm
21:35 -13.1 °C -18.6 °C 34567.7 hPa North 2.6 km/h 5.1 km/h 50 % 0 mm
21:38 -10.9 °C -17.7 °C 34601.5 hPa WSW 11.9 km/h 11.9 km/h 43 % 0 mm
21:43 -10.9 °C -17.6 °C 34601.5 hPa West 6 km/h 6 km/h 44 % 0 mm
21:45 -13.2 °C -18.7 °C 34567.7 hPa Calm   2.6 km/h 50 % 0 mm
21:48 -10.9 °C -17.6 °C 34601.5 hPa WSW 11.9 km/h 11.9 km/h 44 % 0 mm
21:50 -13.3 °C -18.7 °C 34567.7 hPa North 2.6 km/h 2.6 km/h 50 % 0 mm
21:53 -10.9 °C -17.6 °C 34601.5 hPa WSW 6.3 km/h 6.3 km/h 44 % 0 mm
22:00 -13.3 °C -18.8 °C 34567.7 hPa NNW 2.6 km/h 5.1 km/h 50 % 0 mm
22:03 -10.9 °C -17.3 °C 34601.5 hPa WSW 11.9 km/h 11.9 km/h 45 % 0 mm
22:08 -11 °C -17.3 °C 34601.5 hPa WSW 9 km/h 9 km/h 46 % 0 mm
22:10 -13.4 °C -18.8 °C 34567.7 hPa Calm   5.1 km/h 50 % 0 mm
22:13 -11.1 °C -17.3 °C 34601.5 hPa SW 6.3 km/h 6.3 km/h 46 % 0 mm
22:18 -11.2 °C -17.4 °C 34601.5 hPa WSW 6.8 km/h 6.8 km/h 46 % 0 mm
22:20 -13.6 °C -18.8 °C 34567.7 hPa North 2.6 km/h 2.6 km/h 51 % 0 mm
22:23 -11.2 °C -17.4 °C 34601.5 hPa West 6 km/h 6 km/h 46 % 0 mm
22:28 -11.3 °C -17.6 °C 34601.5 hPa Calm     46 % 0 mm
22:30 -13.6 °C -18.8 °C 34567.7 hPa North 2.6 km/h 5.1 km/h 51 % 0 mm
22:33 -11.3 °C -17.6 °C 34635.4 hPa Calm     46 % 0 mm
22:38 -11.3 °C -17.4 °C 34635.4 hPa Calm     47 % 0 mm
22:40 -13.6 °C -18.9 °C 34533.8 hPa Calm   5.1 km/h 51 % 0 mm
22:43 -11.4 °C -17.4 °C 34635.4 hPa Calm     47 % 0 mm
22:48 -11.4 °C -17.4 °C 34601.5 hPa SW 3.1 km/h 3.1 km/h 47 % 0 mm
22:50 -13.6 °C -18.9 °C 34533.8 hPa NNW 2.6 km/h 5.1 km/h 51 % 0 mm
22:53 -11.3 °C -17.6 °C 34601.5 hPa WSW 6 km/h 6 km/h 46 % 0 mm
22:58 -11.3 °C -17.4 °C 34601.5 hPa ENE 5.6 km/h 5.6 km/h 47 % 0 mm
23:00 -13.7 °C -18.9 °C 34533.8 hPa NNW 2.6 km/h 5.1 km/h 51 % 0 mm
23:03 -11.3 °C -17.4 °C 34635.4 hPa WSW 9.3 km/h 9.3 km/h 47 % 0 mm
23:08 -11.3 °C -17.4 °C 34635.4 hPa West 10.3 km/h 10.3 km/h 47 % 0 mm
23:10 -13.7 °C -19 °C 34533.8 hPa Calm   2.6 km/h 51 % 0 mm
23:20 -13.8 °C -19.1 °C 34533.8 hPa Calm     51 % 0 mm
23:30 -13.7 °C -19 °C 34533.8 hPa ESE 5.1 km/h 10.3 km/h 51 % 0 mm
23:40 -13.6 °C -18.9 °C 34496.6 hPa ENE 7.7 km/h 10.3 km/h 51 % 0 mm
23:50 -13.7 °C -18.9 °C 34533.8 hPa NE 7.7 km/h 10.3 km/h 51 % 0 mm
Meteo Sesrovires
Elogis d' Weather Underground - 1.5 mb

Guio original per  Jim McMurry - jmcmurry@mwt.net Adaptat per a la plantilla per  Wim van der Kuil - Leuven-Template.eu

Trobareu la nostra informacio del temps tambe a:

Weather Underground

AWEKAS